sensor_id;sensor_type;location;lat;lon;timestamp;P1;durP1;ratioP1;P2;durP2;ratioP2
20935;SDS011;10627;54.514;18.532;2022-07-19T00:03:48;8.98;;;3.90;;
20935;SDS011;10627;54.514;18.532;2022-07-19T00:08:49;6.53;;;3.67;;
20935;SDS011;10627;54.514;18.532;2022-07-19T00:13:50;5.63;;;4.00;;
20935;SDS011;10627;54.514;18.532;2022-07-19T00:18:50;4.20;;;3.25;;
20935;SDS011;10627;54.514;18.532;2022-07-19T00:23:51;6.47;;;3.92;;
20935;SDS011;10627;54.514;18.532;2022-07-19T00:28:51;4.82;;;3.75;;
20935;SDS011;10627;54.514;18.532;2022-07-19T00:33:54;5.43;;;3.65;;
20935;SDS011;10627;54.514;18.532;2022-07-19T00:38:55;7.60;;;4.13;;
20935;SDS011;10627;54.514;18.532;2022-07-19T00:43:56;9.63;;;4.00;;
20935;SDS011;10627;54.514;18.532;2022-07-19T00:48:57;6.00;;;3.67;;
20935;SDS011;10627;54.514;18.532;2022-07-19T00:53:58;6.38;;;3.53;;
20935;SDS011;10627;54.514;18.532;2022-07-19T00:59:04;7.78;;;4.30;;
20935;SDS011;10627;54.514;18.532;2022-07-19T01:04:05;8.73;;;3.85;;
20935;SDS011;10627;54.514;18.532;2022-07-19T01:09:06;5.90;;;3.92;;
20935;SDS011;10627;54.514;18.532;2022-07-19T01:14:06;8.13;;;3.92;;
20935;SDS011;10627;54.514;18.532;2022-07-19T01:19:07;6.60;;;4.05;;
20935;SDS011;10627;54.514;18.532;2022-07-19T01:24:07;8.02;;;4.00;;
20935;SDS011;10627;54.514;18.532;2022-07-19T01:29:08;8.13;;;4.50;;
20935;SDS011;10627;54.514;18.532;2022-07-19T01:34:08;9.77;;;4.40;;
20935;SDS011;10627;54.514;18.532;2022-07-19T01:39:09;7.85;;;4.47;;
20935;SDS011;10627;54.514;18.532;2022-07-19T01:44:09;6.32;;;4.22;;
20935;SDS011;10627;54.514;18.532;2022-07-19T01:49:10;6.90;;;4.45;;
20935;SDS011;10627;54.514;18.532;2022-07-19T01:54:11;6.93;;;4.65;;
20935;SDS011;10627;54.514;18.532;2022-07-19T01:59:11;8.55;;;4.35;;
20935;SDS011;10627;54.514;18.532;2022-07-19T02:04:12;9.98;;;4.60;;
20935;SDS011;10627;54.514;18.532;2022-07-19T02:09:12;6.05;;;3.80;;
20935;SDS011;10627;54.514;18.532;2022-07-19T02:14:13;8.65;;;5.03;;
20935;SDS011;10627;54.514;18.532;2022-07-19T02:19:14;5.72;;;4.00;;
20935;SDS011;10627;54.514;18.532;2022-07-19T02:24:14;7.68;;;3.80;;
20935;SDS011;10627;54.514;18.532;2022-07-19T02:29:15;6.88;;;4.30;;
20935;SDS011;10627;54.514;18.532;2022-07-19T02:34:16;7.03;;;4.78;;
20935;SDS011;10627;54.514;18.532;2022-07-19T02:39:16;7.10;;;4.60;;
20935;SDS011;10627;54.514;18.532;2022-07-19T02:44:17;7.13;;;4.38;;
20935;SDS011;10627;54.514;18.532;2022-07-19T02:49:17;6.78;;;4.00;;
20935;SDS011;10627;54.514;18.532;2022-07-19T02:54:18;7.32;;;4.47;;
20935;SDS011;10627;54.514;18.532;2022-07-19T02:59:18;7.80;;;4.47;;
20935;SDS011;10627;54.514;18.532;2022-07-19T03:04:19;6.43;;;4.47;;
20935;SDS011;10627;54.514;18.532;2022-07-19T03:09:20;7.80;;;4.75;;
20935;SDS011;10627;54.514;18.532;2022-07-19T03:14:20;5.50;;;4.20;;
20935;SDS011;10627;54.514;18.532;2022-07-19T03:19:21;11.15;;;4.32;;
20935;SDS011;10627;54.514;18.532;2022-07-19T03:24:21;5.40;;;4.07;;
20935;SDS011;10627;54.514;18.532;2022-07-19T03:29:22;6.45;;;3.83;;
20935;SDS011;10627;54.514;18.532;2022-07-19T03:34:23;5.88;;;4.38;;
20935;SDS011;10627;54.514;18.532;2022-07-19T03:39:23;6.78;;;4.50;;
20935;SDS011;10627;54.514;18.532;2022-07-19T03:44:24;6.38;;;4.15;;
20935;SDS011;10627;54.514;18.532;2022-07-19T03:49:24;6.47;;;4.18;;
20935;SDS011;10627;54.514;18.532;2022-07-19T03:54:25;9.15;;;4.78;;
20935;SDS011;10627;54.514;18.532;2022-07-19T03:59:25;6.60;;;4.40;;
20935;SDS011;10627;54.514;18.532;2022-07-19T04:04:26;6.63;;;4.35;;
20935;SDS011;10627;54.514;18.532;2022-07-19T04:09:26;6.93;;;4.15;;
20935;SDS011;10627;54.514;18.532;2022-07-19T04:14:27;7.18;;;4.68;;
20935;SDS011;10627;54.514;18.532;2022-07-19T04:19:27;7.20;;;3.75;;
20935;SDS011;10627;54.514;18.532;2022-07-19T04:24:28;10.77;;;4.30;;
20935;SDS011;10627;54.514;18.532;2022-07-19T04:29:29;7.95;;;4.25;;
20935;SDS011;10627;54.514;18.532;2022-07-19T04:34:29;5.60;;;4.00;;
20935;SDS011;10627;54.514;18.532;2022-07-19T04:39:30;9.50;;;4.22;;
20935;SDS011;10627;54.514;18.532;2022-07-19T04:44:30;7.88;;;5.10;;
20935;SDS011;10627;54.514;18.532;2022-07-19T04:49:31;5.13;;;3.75;;
20935;SDS011;10627;54.514;18.532;2022-07-19T04:54:31;9.60;;;4.80;;
20935;SDS011;10627;54.514;18.532;2022-07-19T04:59:32;8.77;;;4.22;;
20935;SDS011;10627;54.514;18.532;2022-07-19T05:04:32;6.47;;;3.55;;
20935;SDS011;10627;54.514;18.532;2022-07-19T05:09:33;7.80;;;3.45;;
20935;SDS011;10627;54.514;18.532;2022-07-19T05:14:34;6.70;;;4.25;;
20935;SDS011;10627;54.514;18.532;2022-07-19T05:19:34;5.93;;;4.05;;
20935;SDS011;10627;54.514;18.532;2022-07-19T05:24:34;7.45;;;3.78;;
20935;SDS011;10627;54.514;18.532;2022-07-19T05:29:35;7.05;;;3.92;;
20935;SDS011;10627;54.514;18.532;2022-07-19T05:34:35;6.47;;;3.70;;
20935;SDS011;10627;54.514;18.532;2022-07-19T05:39:36;6.10;;;4.68;;
20935;SDS011;10627;54.514;18.532;2022-07-19T05:44:36;6.65;;;4.03;;
20935;SDS011;10627;54.514;18.532;2022-07-19T05:49:37;5.80;;;4.20;;
20935;SDS011;10627;54.514;18.532;2022-07-19T05:54:37;9.13;;;4.18;;
20935;SDS011;10627;54.514;18.532;2022-07-19T05:59:38;6.00;;;4.25;;
20935;SDS011;10627;54.514;18.532;2022-07-19T06:04:38;8.50;;;4.32;;
20935;SDS011;10627;54.514;18.532;2022-07-19T06:09:39;7.53;;;4.40;;
20935;SDS011;10627;54.514;18.532;2022-07-19T06:14:39;9.48;;;3.97;;
20935;SDS011;10627;54.514;18.532;2022-07-19T06:19:40;6.35;;;4.70;;
20935;SDS011;10627;54.514;18.532;2022-07-19T06:24:40;10.20;;;4.28;;
20935;SDS011;10627;54.514;18.532;2022-07-19T06:29:41;7.90;;;4.45;;
20935;SDS011;10627;54.514;18.532;2022-07-19T06:34:42;8.85;;;4.70;;
20935;SDS011;10627;54.514;18.532;2022-07-19T06:39:42;7.90;;;4.05;;
20935;SDS011;10627;54.514;18.532;2022-07-19T06:44:43;8.10;;;4.20;;
20935;SDS011;10627;54.514;18.532;2022-07-19T06:49:44;6.32;;;4.15;;
20935;SDS011;10627;54.514;18.532;2022-07-19T06:54:44;7.75;;;4.20;;
20935;SDS011;10627;54.514;18.532;2022-07-19T06:59:45;5.18;;;4.10;;
20935;SDS011;10627;54.514;18.532;2022-07-19T07:04:45;8.98;;;4.25;;
20935;SDS011;10627;54.514;18.532;2022-07-19T07:09:46;9.75;;;3.90;;
20935;SDS011;10627;54.514;18.532;2022-07-19T07:14:46;11.05;;;3.85;;
20935;SDS011;10627;54.514;18.532;2022-07-19T07:19:47;9.77;;;3.78;;
20935;SDS011;10627;54.514;18.532;2022-07-19T07:24:48;9.45;;;3.58;;
20935;SDS011;10627;54.514;18.532;2022-07-19T07:29:48;6.40;;;3.28;;
20935;SDS011;10627;54.514;18.532;2022-07-19T07:34:49;7.80;;;3.42;;
20935;SDS011;10627;54.514;18.532;2022-07-19T07:39:50;12.85;;;3.85;;
20935;SDS011;10627;54.514;18.532;2022-07-19T07:44:51;4.45;;;3.00;;
20935;SDS011;10627;54.514;18.532;2022-07-19T07:49:52;6.65;;;3.33;;
20935;SDS011;10627;54.514;18.532;2022-07-19T07:54:52;6.28;;;3.47;;
20935;SDS011;10627;54.514;18.532;2022-07-19T07:59:53;3.22;;;2.78;;
20935;SDS011;10627;54.514;18.532;2022-07-19T08:04:54;6.15;;;3.08;;
20935;SDS011;10627;54.514;18.532;2022-07-19T08:09:54;5.07;;;3.10;;
20935;SDS011;10627;54.514;18.532;2022-07-19T08:14:55;6.05;;;3.17;;
20935;SDS011;10627;54.514;18.532;2022-07-19T08:19:55;3.45;;;3.10;;
20935;SDS011;10627;54.514;18.532;2022-07-19T08:24:56;5.75;;;3.22;;
20935;SDS011;10627;54.514;18.532;2022-07-19T08:29:56;4.45;;;3.47;;
20935;SDS011;10627;54.514;18.532;2022-07-19T08:34:57;4.65;;;2.97;;
20935;SDS011;10627;54.514;18.532;2022-07-19T08:39:58;6.50;;;3.13;;
20935;SDS011;10627;54.514;18.532;2022-07-19T08:45:00;9.00;;;2.97;;
20935;SDS011;10627;54.514;18.532;2022-07-19T08:50:06;3.78;;;3.47;;
20935;SDS011;10627;54.514;18.532;2022-07-19T08:55:08;4.90;;;3.15;;
20935;SDS011;10627;54.514;18.532;2022-07-19T09:00:10;3.50;;;3.20;;
20935;SDS011;10627;54.514;18.532;2022-07-19T09:05:12;7.05;;;2.67;;
20935;SDS011;10627;54.514;18.532;2022-07-19T09:10:15;4.70;;;2.50;;
20935;SDS011;10627;54.514;18.532;2022-07-19T09:15:20;4.57;;;2.35;;
20935;SDS011;10627;54.514;18.532;2022-07-19T09:20:26;10.05;;;2.75;;
20935;SDS011;10627;54.514;18.532;2022-07-19T09:25:34;2.97;;;2.53;;
20935;SDS011;10627;54.514;18.532;2022-07-19T09:30:37;4.05;;;2.90;;
20935;SDS011;10627;54.514;18.532;2022-07-19T09:35:40;4.25;;;2.65;;
20935;SDS011;10627;54.514;18.532;2022-07-19T09:40:45;3.13;;;2.55;;
20935;SDS011;10627;54.514;18.532;2022-07-19T09:45:46;3.45;;;2.70;;
20935;SDS011;10627;54.514;18.532;2022-07-19T09:50:47;7.95;;;2.40;;
20935;SDS011;10627;54.514;18.532;2022-07-19T09:55:48;2.95;;;2.50;;
20935;SDS011;10627;54.514;18.532;2022-07-19T10:00:49;3.95;;;2.60;;
20935;SDS011;10627;54.514;18.532;2022-07-19T10:05:50;6.35;;;2.90;;
20935;SDS011;10627;54.514;18.532;2022-07-19T10:10:51;3.25;;;2.13;;
20935;SDS011;10627;54.514;18.532;2022-07-19T10:15:51;4.93;;;2.53;;
20935;SDS011;10627;54.514;18.532;2022-07-19T10:20:54;6.05;;;2.67;;
20935;SDS011;10627;54.514;18.532;2022-07-19T10:25:55;7.80;;;2.75;;
20935;SDS011;10627;54.514;18.532;2022-07-19T10:30:55;3.42;;;2.13;;
20935;SDS011;10627;54.514;18.532;2022-07-19T10:35:57;4.10;;;2.42;;
20935;SDS011;10627;54.514;18.532;2022-07-19T10:40:57;3.95;;;2.65;;
20935;SDS011;10627;54.514;18.532;2022-07-19T10:51:00;3.70;;;2.60;;
20935;SDS011;10627;54.514;18.532;2022-07-19T10:56:16;10.20;;;2.33;;
20935;SDS011;10627;54.514;18.532;2022-07-19T11:01:25;4.05;;;2.75;;
20935;SDS011;10627;54.514;18.532;2022-07-19T11:06:28;3.30;;;2.30;;
20935;SDS011;10627;54.514;18.532;2022-07-19T11:11:28;4.63;;;2.22;;
20935;SDS011;10627;54.514;18.532;2022-07-19T11:16:29;2.55;;;2.00;;
20935;SDS011;10627;54.514;18.532;2022-07-19T11:21:30;3.17;;;2.35;;
20935;SDS011;10627;54.514;18.532;2022-07-19T11:26:36;6.88;;;2.58;;
20935;SDS011;10627;54.514;18.532;2022-07-19T11:31:44;5.25;;;2.28;;
20935;SDS011;10627;54.514;18.532;2022-07-19T11:36:56;7.78;;;2.20;;
20935;SDS011;10627;54.514;18.532;2022-07-19T11:42:02;3.45;;;2.10;;
20935;SDS011;10627;54.514;18.532;2022-07-19T11:47:02;2.63;;;2.17;;
20935;SDS011;10627;54.514;18.532;2022-07-19T12:24:17;4.60;;;2.50;;
20935;SDS011;10627;54.514;18.532;2022-07-19T12:35:21;3.80;;;2.50;;
20935;SDS011;10627;54.514;18.532;2022-07-19T12:54:10;7.47;;;3.47;;
20935;SDS011;10627;54.514;18.532;2022-07-19T12:59:25;3.58;;;2.80;;
20935;SDS011;10627;54.514;18.532;2022-07-19T13:05:30;7.78;;;3.75;;
20935;SDS011;10627;54.514;18.532;2022-07-19T13:10:31;11.98;;;3.28;;
20935;SDS011;10627;54.514;18.532;2022-07-19T13:15:31;5.25;;;2.92;;
20935;SDS011;10627;54.514;18.532;2022-07-19T13:56:58;4.78;;;2.97;;
20935;SDS011;10627;54.514;18.532;2022-07-19T14:15:14;5.22;;;2.70;;
20935;SDS011;10627;54.514;18.532;2022-07-19T14:20:47;6.60;;;2.58;;
20935;SDS011;10627;54.514;18.532;2022-07-19T14:38:39;4.65;;;2.60;;
20935;SDS011;10627;54.514;18.532;2022-07-19T14:44:01;7.28;;;3.10;;
20935;SDS011;10627;54.514;18.532;2022-07-19T14:49:23;6.57;;;3.17;;
20935;SDS011;10627;54.514;18.532;2022-07-19T14:54:31;2.90;;;2.28;;
20935;SDS011;10627;54.514;18.532;2022-07-19T15:05:20;7.53;;;2.60;;
20935;SDS011;10627;54.514;18.532;2022-07-19T15:10:25;4.53;;;2.30;;
20935;SDS011;10627;54.514;18.532;2022-07-19T15:15:36;5.55;;;2.75;;
20935;SDS011;10627;54.514;18.532;2022-07-19T15:20:37;6.15;;;2.33;;
20935;SDS011;10627;54.514;18.532;2022-07-19T15:25:39;4.35;;;2.35;;
20935;SDS011;10627;54.514;18.532;2022-07-19T15:30:50;3.60;;;2.38;;
20935;SDS011;10627;54.514;18.532;2022-07-19T15:36:12;3.47;;;2.40;;
20935;SDS011;10627;54.514;18.532;2022-07-19T15:41:37;8.40;;;2.90;;
20935;SDS011;10627;54.514;18.532;2022-07-19T15:47:03;7.05;;;2.92;;
20935;SDS011;10627;54.514;18.532;2022-07-19T15:58:05;8.23;;;2.60;;
20935;SDS011;10627;54.514;18.532;2022-07-19T16:03:06;7.05;;;3.00;;
20935;SDS011;10627;54.514;18.532;2022-07-19T16:08:08;3.80;;;2.88;;
20935;SDS011;10627;54.514;18.532;2022-07-19T16:13:26;3.67;;;2.28;;
20935;SDS011;10627;54.514;18.532;2022-07-19T16:23:56;4.00;;;2.50;;
20935;SDS011;10627;54.514;18.532;2022-07-19T16:29:03;7.55;;;2.10;;
20935;SDS011;10627;54.514;18.532;2022-07-19T16:46:04;3.05;;;2.30;;
20935;SDS011;10627;54.514;18.532;2022-07-19T17:02:14;5.95;;;2.20;;
20935;SDS011;10627;54.514;18.532;2022-07-19T17:07:25;3.40;;;2.20;;
20935;SDS011;10627;54.514;18.532;2022-07-19T17:12:32;3.58;;;2.60;;
20935;SDS011;10627;54.514;18.532;2022-07-19T17:23:20;3.78;;;2.80;;
20935;SDS011;10627;54.514;18.532;2022-07-19T17:28:21;4.20;;;1.88;;
20935;SDS011;10627;54.514;18.532;2022-07-19T17:39:21;5.72;;;3.08;;
20935;SDS011;10627;54.514;18.532;2022-07-19T17:44:29;5.32;;;3.00;;
20935;SDS011;10627;54.514;18.532;2022-07-19T17:49:53;4.00;;;2.72;;
20935;SDS011;10627;54.514;18.532;2022-07-19T18:01:04;3.97;;;2.58;;
20935;SDS011;10627;54.514;18.532;2022-07-19T18:18:51;6.68;;;2.83;;
20935;SDS011;10627;54.514;18.532;2022-07-19T18:24:14;6.78;;;2.88;;
20935;SDS011;10627;54.514;18.532;2022-07-19T18:29:29;11.45;;;3.47;;
20935;SDS011;10627;54.514;18.532;2022-07-19T18:34:53;5.43;;;3.30;;
20935;SDS011;10627;54.514;18.532;2022-07-19T18:40:22;4.88;;;3.05;;
20935;SDS011;10627;54.514;18.532;2022-07-19T18:51:35;5.40;;;3.08;;
20935;SDS011;10627;54.514;18.532;2022-07-19T19:14:19;5.82;;;3.90;;
20935;SDS011;10627;54.514;18.532;2022-07-19T19:19:28;9.27;;;4.10;;
20935;SDS011;10627;54.514;18.532;2022-07-19T19:24:34;4.55;;;3.53;;
20935;SDS011;10627;54.514;18.532;2022-07-19T19:29:59;5.50;;;3.78;;
20935;SDS011;10627;54.514;18.532;2022-07-19T19:35:18;7.32;;;4.05;;
20935;SDS011;10627;54.514;18.532;2022-07-19T19:46:18;4.40;;;3.55;;
20935;SDS011;10627;54.514;18.532;2022-07-19T19:51:53;9.15;;;3.70;;
20935;SDS011;10627;54.514;18.532;2022-07-19T19:57:04;8.90;;;4.43;;
20935;SDS011;10627;54.514;18.532;2022-07-19T20:02:21;6.75;;;4.35;;
20935;SDS011;10627;54.514;18.532;2022-07-19T20:07:23;7.88;;;4.15;;
20935;SDS011;10627;54.514;18.532;2022-07-19T20:12:25;8.50;;;4.45;;
20935;SDS011;10627;54.514;18.532;2022-07-19T20:17:35;6.78;;;4.13;;
20935;SDS011;10627;54.514;18.532;2022-07-19T20:22:43;9.60;;;4.70;;
20935;SDS011;10627;54.514;18.532;2022-07-19T20:27:44;5.97;;;4.30;;
20935;SDS011;10627;54.514;18.532;2022-07-19T20:32:45;11.30;;;5.00;;
20935;SDS011;10627;54.514;18.532;2022-07-19T20:37:46;8.00;;;4.55;;
20935;SDS011;10627;54.514;18.532;2022-07-19T20:42:47;9.07;;;4.60;;
20935;SDS011;10627;54.514;18.532;2022-07-19T20:47:52;7.53;;;4.63;;
20935;SDS011;10627;54.514;18.532;2022-07-19T20:52:55;10.30;;;5.03;;
20935;SDS011;10627;54.514;18.532;2022-07-19T20:57:58;12.45;;;5.90;;
20935;SDS011;10627;54.514;18.532;2022-07-19T21:03:00;16.98;;;6.70;;
20935;SDS011;10627;54.514;18.532;2022-07-19T21:08:01;14.93;;;6.78;;
20935;SDS011;10627;54.514;18.532;2022-07-19T21:13:18;13.52;;;5.63;;
20935;SDS011;10627;54.514;18.532;2022-07-19T21:18:21;8.15;;;6.00;;
20935;SDS011;10627;54.514;18.532;2022-07-19T21:23:32;10.77;;;5.90;;
20935;SDS011;10627;54.514;18.532;2022-07-19T21:28:42;13.20;;;5.60;;
20935;SDS011;10627;54.514;18.532;2022-07-19T21:50:57;11.98;;;5.72;;
20935;SDS011;10627;54.514;18.532;2022-07-19T21:56:18;8.07;;;5.00;;
20935;SDS011;10627;54.514;18.532;2022-07-19T22:01:27;11.05;;;5.80;;
20935;SDS011;10627;54.514;18.532;2022-07-19T22:06:28;11.70;;;6.13;;
20935;SDS011;10627;54.514;18.532;2022-07-19T22:11:34;14.30;;;6.07;;
20935;SDS011;10627;54.514;18.532;2022-07-19T22:29:28;16.27;;;6.28;;
20935;SDS011;10627;54.514;18.532;2022-07-19T22:35:08;14.77;;;6.28;;
20935;SDS011;10627;54.514;18.532;2022-07-19T22:40:12;14.70;;;6.60;;
20935;SDS011;10627;54.514;18.532;2022-07-19T22:45:19;9.98;;;5.93;;
20935;SDS011;10627;54.514;18.532;2022-07-19T22:50:21;9.65;;;5.75;;
20935;SDS011;10627;54.514;18.532;2022-07-19T22:55:25;12.75;;;5.95;;
20935;SDS011;10627;54.514;18.532;2022-07-19T23:00:26;10.25;;;6.40;;
20935;SDS011;10627;54.514;18.532;2022-07-19T23:25:12;18.27;;;6.32;;
20935;SDS011;10627;54.514;18.532;2022-07-19T23:37:10;14.05;;;5.75;;
